createdAt,value
2017-02-28T00:03:30.122Z,982.86
2017-02-28T00:08:26.349Z,982.97
2017-02-28T00:13:22.751Z,982.92
2017-02-28T00:18:19.202Z,982.92
2017-02-28T00:23:15.522Z,982.86
2017-02-28T00:28:11.989Z,982.84
2017-02-28T00:33:08.400Z,982.83
2017-02-28T00:38:05.118Z,982.67
2017-02-28T00:43:01.724Z,982.50
2017-02-28T00:47:58.137Z,982.55
2017-02-28T00:52:54.462Z,982.57
2017-02-28T00:57:50.882Z,982.71
2017-02-28T01:02:47.321Z,982.66
2017-02-28T01:07:43.669Z,982.62
2017-02-28T01:12:40.104Z,982.84
2017-02-28T01:17:36.436Z,982.83
2017-02-28T01:22:32.904Z,982.50
2017-02-28T01:27:29.153Z,982.42
2017-02-28T01:32:25.386Z,982.72
2017-02-28T01:37:21.684Z,982.69
2017-02-28T01:42:18.008Z,982.80
2017-02-28T01:47:14.396Z,982.75
2017-02-28T01:52:11.383Z,982.58
2017-02-28T02:02:07.934Z,982.42
2017-02-28T02:07:04.091Z,982.45
2017-02-28T02:12:00.501Z,982.45
2017-02-28T02:16:56.824Z,982.35
2017-02-28T02:21:53.490Z,982.53
2017-02-28T02:26:50.100Z,982.72
2017-02-28T02:31:46.534Z,982.58
2017-02-28T02:36:42.966Z,982.85
2017-02-28T02:41:39.455Z,983.13
2017-02-28T02:46:35.761Z,982.82
2017-02-28T02:51:32.337Z,982.62
2017-02-28T02:56:29.199Z,982.63
2017-02-28T03:01:25.391Z,982.66
2017-02-28T03:06:21.672Z,982.77
2017-02-28T03:11:17.951Z,982.73
2017-02-28T03:16:14.382Z,982.81
2017-02-28T03:21:10.633Z,982.88
2017-02-28T03:26:06.994Z,982.89
2017-02-28T03:31:03.231Z,982.92
2017-02-28T03:35:59.679Z,983.01
2017-02-28T03:40:56.129Z,982.82
2017-02-28T03:45:52.426Z,982.78
2017-02-28T03:50:49.653Z,982.83
2017-02-28T03:55:46.167Z,982.76
2017-02-28T04:00:42.678Z,982.78
2017-02-28T04:05:39.846Z,982.89
2017-02-28T04:10:36.452Z,982.85
2017-02-28T04:15:33.011Z,982.75
2017-02-28T04:20:29.425Z,982.75
2017-02-28T04:25:26.017Z,982.83
2017-02-28T04:30:22.345Z,982.94
2017-02-28T04:35:18.753Z,982.88
2017-02-28T04:40:14.821Z,982.95
2017-02-28T04:45:12.453Z,982.98
2017-02-28T04:50:09.123Z,983.04
2017-02-28T04:55:05.634Z,983.09
2017-02-28T05:00:02.289Z,983.06
2017-02-28T05:04:58.862Z,983.07
2017-02-28T05:09:55.522Z,982.99
2017-02-28T05:14:52.040Z,983.01
2017-02-28T05:19:49.196Z,983.03
2017-02-28T05:24:45.892Z,983.03
2017-02-28T05:29:42.177Z,983.00
2017-02-28T05:34:38.577Z,983.14
2017-02-28T05:39:35.082Z,983.30
2017-02-28T05:44:31.904Z,983.20
2017-02-28T05:49:28.516Z,983.13
2017-02-28T05:54:24.935Z,983.15
2017-02-28T05:59:21.432Z,983.18
2017-02-28T06:04:17.841Z,983.26
2017-02-28T06:09:14.563Z,983.28
2017-02-28T06:14:11.003Z,983.32
2017-02-28T06:19:07.443Z,983.25
2017-02-28T06:24:03.993Z,983.31
2017-02-28T06:29:00.332Z,983.26
2017-02-28T06:33:56.796Z,983.33
2017-02-28T06:38:53.281Z,983.39
2017-02-28T06:43:49.862Z,983.45
2017-02-28T06:48:46.116Z,983.43
2017-02-28T06:53:43.704Z,983.51
2017-02-28T06:58:39.963Z,983.50
2017-02-28T07:03:36.517Z,983.37
2017-02-28T07:08:33.176Z,983.44
2017-02-28T07:13:29.916Z,983.47
2017-02-28T07:18:26.254Z,983.61
2017-02-28T07:23:22.365Z,983.53
2017-02-28T07:28:18.816Z,983.53
2017-02-28T07:33:15.233Z,983.60
2017-02-28T07:38:11.707Z,983.62
2017-02-28T07:43:07.931Z,983.62
2017-02-28T07:48:04.516Z,983.56
2017-02-28T07:53:01.052Z,983.64
2017-02-28T07:57:58.771Z,983.57
2017-02-28T08:02:55.517Z,983.75
2017-02-28T08:07:51.941Z,983.72
2017-02-28T08:12:48.584Z,983.79
2017-02-28T08:17:45.247Z,983.85
2017-02-28T08:22:41.851Z,983.84
2017-02-28T08:27:38.310Z,983.90
2017-02-28T08:32:34.701Z,983.90
2017-02-28T08:37:30.852Z,983.86
2017-02-28T08:42:27.225Z,984.06
2017-02-28T08:47:23.848Z,983.82
2017-02-28T08:52:20.344Z,983.83
2017-02-28T08:57:16.740Z,983.89
2017-02-28T09:02:14.292Z,983.85
2017-02-28T09:07:10.499Z,984.02
2017-02-28T09:12:06.952Z,984.08
2017-02-28T09:17:03.357Z,983.88
2017-02-28T09:22:00.771Z,984.13
2017-02-28T09:26:57.369Z,984.00
2017-02-28T09:31:55.393Z,983.93
2017-02-28T09:36:52.474Z,983.80
2017-02-28T09:41:49.791Z,983.85
2017-02-28T09:46:46.854Z,983.85
2017-02-28T09:51:43.720Z,983.80
2017-02-28T09:56:40.305Z,983.67
2017-02-28T10:01:36.927Z,983.82
2017-02-28T10:06:33.432Z,983.70
2017-02-28T10:11:29.714Z,983.68
2017-02-28T10:16:25.878Z,983.76
2017-02-28T10:21:22.277Z,983.78
2017-02-28T10:26:18.891Z,983.95
2017-02-28T10:31:15.306Z,984.02
2017-02-28T10:36:11.760Z,983.96
2017-02-28T10:41:08.492Z,983.99
2017-02-28T10:46:05.768Z,983.98
2017-02-28T10:51:03.194Z,983.92
2017-02-28T10:55:59.537Z,984.09
2017-02-28T11:00:56.002Z,983.96
2017-02-28T11:05:52.561Z,983.91
2017-02-28T11:10:49.400Z,983.96
2017-02-28T11:15:46.387Z,983.86
2017-02-28T11:20:43.006Z,983.85
2017-02-28T11:25:39.464Z,983.71
2017-02-28T11:30:35.497Z,983.82
2017-02-28T11:35:31.831Z,983.76
2017-02-28T11:40:28.914Z,983.72
2017-02-28T11:45:25.737Z,983.67
2017-02-28T11:50:22.476Z,983.51
2017-02-28T11:55:20.408Z,983.41
2017-02-28T12:00:20.440Z,983.52
2017-02-28T12:05:16.453Z,983.52
2017-02-28T12:10:12.602Z,983.23
2017-02-28T12:15:10.536Z,983.34
2017-02-28T12:20:07.358Z,983.21
2017-02-28T12:25:03.905Z,983.12
2017-02-28T12:30:00.436Z,983.05
2017-02-28T12:34:56.145Z,983.00
2017-02-28T12:39:52.498Z,982.99
2017-02-28T12:44:48.601Z,983.12
2017-02-28T12:49:44.865Z,982.90
2017-02-28T12:54:41.018Z,982.83
2017-02-28T12:59:37.707Z,982.88
2017-02-28T13:04:34.297Z,982.76
2017-02-28T13:09:30.705Z,982.57
2017-02-28T13:14:27.398Z,982.53
2017-02-28T13:19:24.565Z,982.52
2017-02-28T13:24:21.420Z,982.49
2017-02-28T13:29:18.676Z,982.51
2017-02-28T13:34:15.327Z,982.41
2017-02-28T13:39:12.005Z,982.32
2017-02-28T13:44:08.626Z,982.24
2017-02-28T13:49:05.224Z,982.23
2017-02-28T13:54:01.542Z,982.12
2017-02-28T13:58:58.294Z,982.01
2017-02-28T14:03:54.774Z,982.03
2017-02-28T14:08:51.528Z,982.00
2017-02-28T14:13:48.045Z,982.07
2017-02-28T14:18:45.247Z,982.13
2017-02-28T14:23:41.597Z,982.13
2017-02-28T14:28:37.687Z,982.03
2017-02-28T14:33:34.438Z,982.02
2017-02-28T14:38:30.529Z,982.10
2017-02-28T14:43:27.318Z,982.04
2017-02-28T14:48:23.458Z,982.09
2017-02-28T14:53:20.108Z,982.08
2017-02-28T14:58:16.786Z,982.07
2017-02-28T15:03:12.943Z,982.10
2017-02-28T15:08:09.228Z,982.21
2017-02-28T15:13:05.634Z,982.25
2017-02-28T15:18:02.167Z,982.23
2017-02-28T15:22:58.661Z,982.30
2017-02-28T15:27:55.462Z,982.35
2017-02-28T15:32:51.963Z,982.47
2017-02-28T15:37:48.363Z,982.48
2017-02-28T15:42:45.131Z,982.55
2017-02-28T15:47:42.188Z,982.53
2017-02-28T15:52:38.088Z,982.62
2017-02-28T15:57:34.287Z,982.63
2017-02-28T16:02:30.628Z,982.53
2017-02-28T16:07:26.868Z,982.56
2017-02-28T16:12:23.377Z,982.62
2017-02-28T16:17:19.876Z,982.64
2017-02-28T16:22:16.241Z,982.67
2017-02-28T16:27:12.485Z,982.81
2017-02-28T16:32:08.740Z,983.05
2017-02-28T16:37:04.899Z,983.08
2017-02-28T16:42:01.371Z,983.05
2017-02-28T16:46:58.018Z,982.99
2017-02-28T16:51:54.315Z,983.12
2017-02-28T16:56:50.937Z,983.21
2017-02-28T17:01:47.213Z,983.24
2017-02-28T17:06:44.517Z,983.19
2017-02-28T17:11:40.907Z,983.23
2017-02-28T17:16:37.283Z,983.34
2017-02-28T17:21:33.848Z,983.56
2017-02-28T17:26:30.543Z,984.18
2017-02-28T17:31:26.776Z,984.38
2017-02-28T17:36:22.704Z,984.63
2017-02-28T17:41:18.657Z,984.58
2017-02-28T17:46:14.798Z,984.73
2017-02-28T17:51:11.083Z,984.73
2017-02-28T17:56:07.417Z,984.81
2017-02-28T18:01:03.538Z,984.95
2017-02-28T18:05:59.893Z,985.07
2017-02-28T18:10:56.972Z,985.31
2017-02-28T18:15:53.113Z,985.32
2017-02-28T18:20:49.268Z,985.44
2017-02-28T18:25:45.548Z,985.54
2017-02-28T18:30:41.983Z,985.57
2017-02-28T18:35:37.899Z,985.73
2017-02-28T18:40:34.478Z,985.91
2017-02-28T18:45:31.086Z,985.93
2017-02-28T18:50:26.993Z,986.06
2017-02-28T18:55:23.339Z,986.12
2017-02-28T19:00:19.887Z,986.24
2017-02-28T19:05:16.694Z,986.31
2017-02-28T19:10:13.074Z,986.37
2017-02-28T19:15:09.435Z,986.45
2017-02-28T19:20:06.572Z,986.52
2017-02-28T19:25:02.969Z,986.66
2017-02-28T19:29:59.224Z,986.72
2017-02-28T19:34:55.494Z,986.84
2017-02-28T19:39:52.073Z,986.88
2017-02-28T19:44:48.419Z,987.00
2017-02-28T19:49:44.870Z,987.07
2017-02-28T19:54:41.321Z,987.16
2017-02-28T19:59:37.711Z,987.15
2017-02-28T20:04:33.904Z,987.23
2017-02-28T20:09:30.502Z,987.21
2017-02-28T20:14:26.806Z,987.29
2017-02-28T20:19:22.841Z,987.25
2017-02-28T20:24:19.989Z,987.30
2017-02-28T20:29:16.717Z,987.38
2017-02-28T20:34:13.295Z,987.44
2017-02-28T20:39:09.617Z,987.46
2017-02-28T20:44:06.931Z,987.48
2017-02-28T20:49:04.057Z,987.50
2017-02-28T20:54:00.167Z,987.45
2017-02-28T20:58:56.604Z,987.56
2017-02-28T21:03:53.113Z,987.63
2017-02-28T21:08:49.487Z,987.60
2017-02-28T21:13:45.934Z,987.67
2017-02-28T21:18:43.188Z,987.73
2017-02-28T21:23:39.073Z,987.78
2017-02-28T21:28:36.163Z,987.82
2017-02-28T21:33:32.747Z,987.87
2017-02-28T21:38:29.504Z,987.75
2017-02-28T21:43:26.151Z,987.73
2017-02-28T21:48:22.595Z,987.78
2017-02-28T21:53:18.944Z,987.83
2017-02-28T21:58:15.510Z,987.82
2017-02-28T22:03:11.779Z,987.87
2017-02-28T22:08:08.626Z,987.93
2017-02-28T22:13:05.926Z,987.93
2017-02-28T22:18:02.531Z,987.93
2017-02-28T22:22:58.986Z,988.00
2017-02-28T22:27:55.498Z,987.96
2017-02-28T22:32:51.504Z,987.92
2017-02-28T22:37:48.014Z,988.04
2017-02-28T22:42:44.418Z,988.04
2017-02-28T22:47:41.627Z,988.17
2017-02-28T22:52:39.021Z,988.14
2017-02-28T22:57:35.392Z,988.13
2017-02-28T23:02:31.828Z,988.16
2017-02-28T23:07:28.990Z,988.18
2017-02-28T23:12:25.223Z,988.14
2017-02-28T23:17:21.455Z,988.10
2017-02-28T23:22:17.978Z,988.18
2017-02-28T23:27:14.602Z,988.15
2017-02-28T23:32:11.789Z,988.23
2017-02-28T23:37:08.533Z,988.28
2017-02-28T23:42:05.121Z,988.24
2017-02-28T23:47:01.333Z,988.21
2017-02-28T23:51:57.652Z,988.24
2017-02-28T23:56:54.033Z,988.21
